createdAt,value
2022-10-20T00:00:34.273Z,71.31
2022-10-20T00:03:06.204Z,71.32
2022-10-20T00:05:38.174Z,71.69
2022-10-20T00:08:10.075Z,71.29
2022-10-20T00:10:42.478Z,71.42
2022-10-20T00:13:14.397Z,71.27
2022-10-20T00:15:53.159Z,71.88
2022-10-20T00:18:25.819Z,71.54
2022-10-20T00:20:57.794Z,71.65
2022-10-20T00:23:29.603Z,71.75
2022-10-20T00:26:06.292Z,71.73
2022-10-20T00:28:38.776Z,71.90
2022-10-20T00:31:11.294Z,71.80
2022-10-20T00:33:43.212Z,72.18
2022-10-20T00:36:16.893Z,72.31
2022-10-20T00:38:49.196Z,72.23
2022-10-20T00:41:21.839Z,72.36
2022-10-20T00:43:59.755Z,72.89
2022-10-20T00:46:40.421Z,72.99
2022-10-20T00:49:20.908Z,72.78
2022-10-20T00:51:53.731Z,72.19
2022-10-20T00:54:27.017Z,72.36
2022-10-20T00:57:00.006Z,72.40
2022-10-20T00:59:33.879Z,72.45
2022-10-20T01:02:07.143Z,72.51
2022-10-20T01:04:39.203Z,72.50
2022-10-20T01:07:11.371Z,72.47
2022-10-20T01:09:43.397Z,72.56
2022-10-20T01:12:54.061Z,73.28
2022-10-20T01:15:42.285Z,73.36
2022-10-20T01:18:49.843Z,73.39
2022-10-20T01:21:39.281Z,73.36
2022-10-20T01:24:48.461Z,73.54
2022-10-20T01:27:30.832Z,72.83
2022-10-20T01:30:09.977Z,72.95
2022-10-20T01:33:04.322Z,73.48
2022-10-20T01:35:51.233Z,72.68
2022-10-20T01:38:48.821Z,72.92
2022-10-20T01:41:40.850Z,73.25
2022-10-20T01:44:15.210Z,72.88
2022-10-20T01:46:47.265Z,72.84
2022-10-20T01:49:19.344Z,73.21
2022-10-20T01:51:51.583Z,73.01
2022-10-20T01:54:28.457Z,73.43
2022-10-20T01:57:18.971Z,73.65
2022-10-20T02:00:10.373Z,74.00
2022-10-20T02:02:48.085Z,73.03
2022-10-20T02:06:00.867Z,74.27
2022-10-20T02:08:39.862Z,73.92
2022-10-20T02:11:18.941Z,73.86
2022-10-20T02:13:52.458Z,73.72
2022-10-20T02:16:34.192Z,74.06
2022-10-20T02:19:07.913Z,73.70
2022-10-20T02:21:39.850Z,74.02
2022-10-20T02:24:14.637Z,74.74
2022-10-20T02:26:46.528Z,74.25
2022-10-20T02:29:24.114Z,74.84
2022-10-20T02:31:56.725Z,74.26
2022-10-20T02:34:28.687Z,74.91
2022-10-20T02:37:00.510Z,74.66
2022-10-20T02:39:32.374Z,74.74
2022-10-20T02:42:04.583Z,74.76
2022-10-20T02:44:36.390Z,74.89
2022-10-20T02:47:08.298Z,74.68
2022-10-20T02:49:40.222Z,75.11
2022-10-20T02:52:12.129Z,75.31
2022-10-20T02:54:44.068Z,75.15
2022-10-20T02:57:16.025Z,75.15
2022-10-20T02:59:47.872Z,75.62
2022-10-20T03:02:19.899Z,75.66
2022-10-20T03:04:51.728Z,75.76
2022-10-20T03:07:23.574Z,75.65
2022-10-20T03:09:55.587Z,75.93
2022-10-20T03:12:30.106Z,75.74
2022-10-20T03:15:05.187Z,75.90
2022-10-20T03:17:37.339Z,75.98
2022-10-20T03:20:09.940Z,75.88
2022-10-20T03:22:42.001Z,75.93
2022-10-20T03:25:14.201Z,76.01
2022-10-20T03:27:46.331Z,75.96
2022-10-20T03:30:18.346Z,76.20
2022-10-20T03:32:50.454Z,76.18
2022-10-20T03:35:22.475Z,75.99
2022-10-20T03:37:54.264Z,76.06
2022-10-20T03:40:26.188Z,76.47
2022-10-20T03:42:58.091Z,76.47
2022-10-20T03:45:30.374Z,76.36
2022-10-20T03:48:02.211Z,76.66
2022-10-20T03:50:34.209Z,76.50
2022-10-20T03:53:06.443Z,76.86
2022-10-20T03:55:38.445Z,76.88
2022-10-20T03:58:10.477Z,76.93
2022-10-20T04:00:42.444Z,76.88
2022-10-20T04:03:14.822Z,76.77
2022-10-20T04:05:46.731Z,77.11
2022-10-20T04:08:18.740Z,77.28
2022-10-20T04:10:51.014Z,77.03
2022-10-20T04:13:23.047Z,77.33
2022-10-20T04:15:54.926Z,77.07
2022-10-20T04:18:26.943Z,77.35
2022-10-20T04:20:59.102Z,77.67
2022-10-20T04:23:31.053Z,77.55
2022-10-20T04:26:10.453Z,78.54
2022-10-20T04:28:42.791Z,77.78
2022-10-20T04:31:14.589Z,77.69
2022-10-20T04:33:46.573Z,77.78
2022-10-20T04:36:18.560Z,78.07
2022-10-20T04:38:50.396Z,77.86
2022-10-20T04:41:22.394Z,78.04
2022-10-20T04:43:54.159Z,78.49
2022-10-20T04:46:26.890Z,78.45
2022-10-20T04:48:58.737Z,78.13
2022-10-20T04:51:30.591Z,78.38
2022-10-20T04:54:02.732Z,78.75
2022-10-20T04:56:34.674Z,78.75
2022-10-20T04:59:09.592Z,79.50
2022-10-20T05:01:44.903Z,78.97
2022-10-20T05:04:21.883Z,79.21
2022-10-20T05:06:53.852Z,79.38
2022-10-20T05:09:25.751Z,79.48
2022-10-20T05:11:57.894Z,79.54
2022-10-20T05:14:29.954Z,79.58
2022-10-20T05:17:04.195Z,79.79
2022-10-20T05:19:38.525Z,80.18
2022-10-20T05:22:10.436Z,80.01
2022-10-20T05:24:42.300Z,80.23
2022-10-20T05:27:14.167Z,80.44
2022-10-20T05:29:46.093Z,80.87
2022-10-20T05:32:17.923Z,80.50
2022-10-20T05:34:49.802Z,80.27
2022-10-20T05:37:24.251Z,80.74
2022-10-20T05:39:59.888Z,80.49
2022-10-20T05:42:31.677Z,80.24
2022-10-20T05:45:04.672Z,80.54
2022-10-20T05:47:36.475Z,81.06
2022-10-20T05:50:09.592Z,80.78
2022-10-20T05:52:41.589Z,81.21
2022-10-20T05:55:13.499Z,81.28
2022-10-20T05:57:45.530Z,80.95
2022-10-20T06:00:19.513Z,81.09
2022-10-20T06:02:54.171Z,81.38
2022-10-20T06:05:26.481Z,81.26
2022-10-20T06:07:58.314Z,81.33
2022-10-20T06:10:30.162Z,81.54
2022-10-20T06:13:02.058Z,81.46
2022-10-20T06:15:33.857Z,81.76
2022-10-20T06:18:05.714Z,82.13
2022-10-20T06:20:37.571Z,81.77
2022-10-20T06:23:09.366Z,82.07
2022-10-20T06:25:41.312Z,82.33
2022-10-20T06:28:13.139Z,82.05
2022-10-20T06:30:45.126Z,82.22
2022-10-20T06:33:17.023Z,82.38
2022-10-20T06:35:48.850Z,82.59
2022-10-20T06:38:20.697Z,82.73
2022-10-20T06:40:52.720Z,82.59
2022-10-20T06:43:24.933Z,82.56
2022-10-20T06:46:01.259Z,82.69
2022-10-20T06:48:34.039Z,82.64
2022-10-20T06:51:11.882Z,83.03
2022-10-20T06:53:46.581Z,82.81
2022-10-20T06:56:23.856Z,83.07
2022-10-20T06:58:56.951Z,82.51
2022-10-20T07:01:33.882Z,82.63
2022-10-20T07:04:07.903Z,82.37
2022-10-20T07:06:41.738Z,82.41
2022-10-20T07:09:18.971Z,82.59
2022-10-20T07:11:52.363Z,82.29
2022-10-20T07:14:24.301Z,82.48
2022-10-20T07:16:56.209Z,82.58
2022-10-20T07:19:28.040Z,82.15
2022-10-20T07:22:00.230Z,81.92
2022-10-20T07:24:32.143Z,82.03
2022-10-20T07:27:04.060Z,81.63
2022-10-20T07:29:37.377Z,81.54
2022-10-20T07:32:09.238Z,81.47
2022-10-20T07:34:41.084Z,81.37
2022-10-20T07:37:12.922Z,81.04
2022-10-20T07:39:44.761Z,81.22
2022-10-20T07:42:16.956Z,81.43
2022-10-20T07:44:48.974Z,81.22
2022-10-20T07:47:21.060Z,80.95
2022-10-20T07:49:53.009Z,81.04
2022-10-20T07:52:25.171Z,80.74
2022-10-20T08:03:25.984Z,80.37
2022-10-20T08:05:58.022Z,80.60
2022-10-20T08:08:29.947Z,80.52
2022-10-20T08:11:02.272Z,80.01
2022-10-20T08:13:34.291Z,79.81
2022-10-20T08:16:09.488Z,79.36
2022-10-20T08:21:26.808Z,79.04
2022-10-20T08:23:59.009Z,78.77
2022-10-20T08:26:30.964Z,78.59
2022-10-20T08:29:03.277Z,78.35
2022-10-20T08:31:35.342Z,78.33
2022-10-20T08:34:08.103Z,78.35
2022-10-20T08:36:40.056Z,78.06
2022-10-20T08:39:12.202Z,77.91
2022-10-20T08:42:06.910Z,77.65
2022-10-20T08:44:40.435Z,77.40
2022-10-20T08:47:29.162Z,76.82
2022-10-20T08:50:06.602Z,76.94
2022-10-20T08:52:40.905Z,76.72
2022-10-20T08:55:29.196Z,76.72
2022-10-20T08:58:06.127Z,76.71
2022-10-20T09:00:39.225Z,76.30
2022-10-20T09:03:16.050Z,76.29
2022-10-20T09:06:00.328Z,76.08
2022-10-20T09:08:34.383Z,75.93
2022-10-20T09:11:08.873Z,75.81
2022-10-20T09:13:41.138Z,75.59
2022-10-20T09:16:40.456Z,75.48
2022-10-20T09:19:18.323Z,74.69
2022-10-20T09:21:55.045Z,74.64
2022-10-20T09:24:30.117Z,74.68
2022-10-20T09:27:24.380Z,74.20
2022-10-20T09:29:56.211Z,74.38
2022-10-20T09:32:46.006Z,74.11
2022-10-20T09:35:27.773Z,74.30
2022-10-20T09:38:11.457Z,74.04
2022-10-20T09:40:58.002Z,73.81
2022-10-20T09:43:30.071Z,74.18
2022-10-20T09:46:07.897Z,73.85
2022-10-20T09:48:44.513Z,73.95
2022-10-20T09:51:21.678Z,73.52
2022-10-20T09:53:58.000Z,73.61
2022-10-20T09:56:38.552Z,73.23
2022-10-20T09:59:39.136Z,73.13
2022-10-20T10:02:14.044Z,73.20
2022-10-20T10:04:48.206Z,73.15
2022-10-20T10:07:26.090Z,73.11
2022-10-20T10:10:21.808Z,72.73
2022-10-20T10:12:56.520Z,72.96
2022-10-20T10:15:31.679Z,72.71
2022-10-20T10:18:21.967Z,72.27
2022-10-20T10:21:03.305Z,72.28
2022-10-20T10:23:41.111Z,72.13
2022-10-20T10:26:41.783Z,72.05
2022-10-20T10:29:32.987Z,72.15
2022-10-20T10:32:26.822Z,71.83
2022-10-20T10:35:11.900Z,72.01
2022-10-20T10:37:44.834Z,71.97
2022-10-20T10:40:24.187Z,71.65
2022-10-20T10:43:16.871Z,71.14
2022-10-20T10:45:52.757Z,70.86
2022-10-20T10:48:46.499Z,68.88
2022-10-20T10:51:40.158Z,68.93
2022-10-20T10:54:24.507Z,67.48
2022-10-20T10:57:25.118Z,67.34
2022-10-20T11:00:01.731Z,68.21
2022-10-20T11:02:45.771Z,68.34
2022-10-20T11:05:17.641Z,67.88
2022-10-20T11:07:59.894Z,66.43
2022-10-20T11:10:58.505Z,65.16
2022-10-20T11:13:36.614Z,64.61
2022-10-20T11:16:36.683Z,62.50
2022-10-20T11:19:37.539Z,61.83
2022-10-20T11:22:23.138Z,61.70
2022-10-20T11:25:13.690Z,60.46
2022-10-20T11:27:45.678Z,62.59
2022-10-20T11:30:21.204Z,61.87
2022-10-20T11:33:18.731Z,59.93
2022-10-20T11:36:13.189Z,57.83
2022-10-20T11:38:56.517Z,58.14
2022-10-20T11:41:35.393Z,58.57
2022-10-20T11:44:13.799Z,57.67
2022-10-20T11:47:12.874Z,53.27
2022-10-20T11:49:45.110Z,55.92
2022-10-20T11:52:34.090Z,50.47
2022-10-20T11:55:24.930Z,54.08
2022-10-20T11:58:30.417Z,48.53
2022-10-20T12:01:25.359Z,47.70
2022-10-20T12:04:18.623Z,46.70
2022-10-20T12:07:20.640Z,46.73
2022-10-20T12:10:21.333Z,45.26
2022-10-20T12:13:05.808Z,44.38
2022-10-20T12:15:46.831Z,43.76
2022-10-20T12:18:24.274Z,43.76
2022-10-20T12:21:16.492Z,42.08
2022-10-20T12:23:53.317Z,44.56
2022-10-20T12:26:34.164Z,43.30
2022-10-20T12:29:31.818Z,44.55
2022-10-20T12:32:21.685Z,45.33
2022-10-20T12:34:59.814Z,46.65
2022-10-20T12:37:34.251Z,46.64
2022-10-20T12:40:06.169Z,46.44
2022-10-20T12:42:40.554Z,45.37
2022-10-20T12:45:18.417Z,44.27
2022-10-20T12:47:53.821Z,44.25
2022-10-20T12:50:34.502Z,42.73
2022-10-20T12:53:24.147Z,42.61
2022-10-20T12:56:01.384Z,43.43
2022-10-20T12:58:35.502Z,44.50
2022-10-20T13:01:10.460Z,45.70
2022-10-20T13:03:43.754Z,46.86
2022-10-20T13:06:30.160Z,48.88
2022-10-20T13:09:05.204Z,49.67
2022-10-20T13:11:41.050Z,49.76
2022-10-20T13:14:13.143Z,50.43
2022-10-20T13:16:49.164Z,51.44
2022-10-20T13:19:24.904Z,51.85
2022-10-20T13:21:57.045Z,51.93
2022-10-20T13:24:31.597Z,52.25
2022-10-20T13:27:08.962Z,52.49
2022-10-20T13:29:43.967Z,52.34
2022-10-20T13:33:01.716Z,52.66
2022-10-20T13:36:16.745Z,52.72
2022-10-20T13:38:57.412Z,53.03
2022-10-20T13:41:48.113Z,53.25
2022-10-20T13:44:32.051Z,53.01
2022-10-20T13:47:41.480Z,52.92
2022-10-20T13:53:01.295Z,52.66
2022-10-20T13:56:04.520Z,52.32
2022-10-20T13:58:36.576Z,52.75
2022-10-20T14:01:24.217Z,52.91
2022-10-20T14:03:57.750Z,53.20
2022-10-20T14:06:34.999Z,53.26
2022-10-20T14:09:15.387Z,53.95
2022-10-20T14:11:50.501Z,54.31
2022-10-20T14:14:24.619Z,54.39
2022-10-20T14:17:06.935Z,54.58
2022-10-20T14:19:40.404Z,54.61
2022-10-20T14:22:23.791Z,54.90
2022-10-20T14:24:57.385Z,55.23
2022-10-20T14:27:32.121Z,55.32
2022-10-20T14:30:05.531Z,55.39
2022-10-20T14:32:39.892Z,55.50
2022-10-20T14:35:26.161Z,55.85
2022-10-20T14:38:18.234Z,55.67
2022-10-20T14:40:53.015Z,55.74
2022-10-20T14:43:48.034Z,56.31
2022-10-20T14:46:28.458Z,56.58
2022-10-20T14:49:00.543Z,56.46
2022-10-20T14:51:32.563Z,56.60
2022-10-20T14:54:16.712Z,57.76
2022-10-20T14:56:52.529Z,57.58
2022-10-20T14:59:27.276Z,57.80
2022-10-20T15:02:12.454Z,57.77
2022-10-20T15:04:46.052Z,58.03
2022-10-20T15:07:33.526Z,58.74
2022-10-20T15:10:05.671Z,58.38
2022-10-20T15:12:38.168Z,58.03
2022-10-20T15:15:10.630Z,58.29
2022-10-20T15:17:46.702Z,58.37
2022-10-20T15:20:39.256Z,59.09
2022-10-20T15:23:14.028Z,58.46
2022-10-20T15:25:59.998Z,59.25
2022-10-20T15:28:48.344Z,59.26
2022-10-20T15:31:22.914Z,59.19
2022-10-20T15:33:56.258Z,59.41
2022-10-20T15:36:32.907Z,59.43
2022-10-20T15:39:05.111Z,59.34
2022-10-20T15:41:36.970Z,59.52
2022-10-20T15:44:14.926Z,59.59
2022-10-20T15:46:47.107Z,59.64
2022-10-20T15:49:19.796Z,59.71
2022-10-20T15:51:52.002Z,59.63
2022-10-20T15:54:23.943Z,59.85
2022-10-20T15:56:55.836Z,59.99
2022-10-20T15:59:28.036Z,59.89
2022-10-20T16:02:01.057Z,59.95
2022-10-20T16:04:33.011Z,60.12
2022-10-20T16:07:04.802Z,60.40
2022-10-20T16:09:36.852Z,60.34
2022-10-20T16:12:10.251Z,60.51
2022-10-20T16:14:42.507Z,60.69
2022-10-20T16:17:14.487Z,60.78
2022-10-20T16:19:46.394Z,60.84
2022-10-20T16:22:18.353Z,61.04
2022-10-20T16:24:50.337Z,61.43
2022-10-20T16:27:23.707Z,61.59
2022-10-20T16:29:57.336Z,61.79
2022-10-20T16:32:34.611Z,61.78
2022-10-20T16:35:10.342Z,62.21
2022-10-20T16:37:44.050Z,62.12
2022-10-20T16:40:16.148Z,62.39
2022-10-20T16:42:47.929Z,62.64
2022-10-20T16:47:55.304Z,62.88
2022-10-20T16:50:27.361Z,63.25
2022-10-20T16:52:59.218Z,63.24
2022-10-20T16:55:31.161Z,63.53
2022-10-20T16:58:03.072Z,63.62
2022-10-20T17:00:35.002Z,63.93
2022-10-20T17:03:06.942Z,64.31
2022-10-20T17:05:39.098Z,64.27
2022-10-20T17:08:11.003Z,64.43
2022-10-20T17:10:43.128Z,64.88
2022-10-20T17:13:17.643Z,65.07
2022-10-20T17:15:49.909Z,65.22
2022-10-20T17:18:23.770Z,65.48
2022-10-20T17:20:56.326Z,65.94
2022-10-20T17:23:32.473Z,65.96
2022-10-20T17:26:05.748Z,65.80
2022-10-20T17:28:37.886Z,65.92
2022-10-20T17:31:12.431Z,66.28
2022-10-20T17:33:45.166Z,66.19
2022-10-20T17:36:18.928Z,66.13
2022-10-20T17:38:54.347Z,66.81
2022-10-20T17:41:27.116Z,66.63
2022-10-20T17:44:00.615Z,66.60
2022-10-20T17:46:33.460Z,66.98
2022-10-20T17:49:06.026Z,66.94
2022-10-20T17:51:38.039Z,67.05
2022-10-20T17:54:09.975Z,67.13
2022-10-20T17:56:41.792Z,67.28
2022-10-20T17:59:15.072Z,67.35
2022-10-20T18:01:47.424Z,67.31
2022-10-20T18:04:19.467Z,67.60
2022-10-20T18:06:51.436Z,67.88
2022-10-20T18:09:23.319Z,68.01
2022-10-20T18:11:55.326Z,68.26
2022-10-20T18:14:27.249Z,68.49
2022-10-20T18:17:01.876Z,68.88
2022-10-20T18:19:33.969Z,69.10
2022-10-20T18:22:05.943Z,69.46
2022-10-20T18:24:37.890Z,69.65
2022-10-20T18:27:10.201Z,69.91
2022-10-20T18:29:43.221Z,70.05
2022-10-20T18:32:15.225Z,70.48
2022-10-20T18:34:47.650Z,70.49
2022-10-20T18:37:19.730Z,71.01
2022-10-20T18:39:51.937Z,70.94
2022-10-20T18:42:23.874Z,71.32
2022-10-20T18:44:56.057Z,71.48
2022-10-20T18:47:28.062Z,71.62
2022-10-20T18:50:00.402Z,71.57
2022-10-20T18:52:32.321Z,72.13
2022-10-20T18:55:04.813Z,72.24
2022-10-20T18:57:39.611Z,72.33
2022-10-20T19:00:12.399Z,72.57
2022-10-20T19:02:44.386Z,72.58
2022-10-20T19:05:16.630Z,73.21
2022-10-20T19:07:48.738Z,73.10
2022-10-20T19:10:20.695Z,73.18
2022-10-20T19:12:52.646Z,73.29
2022-10-20T19:15:24.608Z,73.35
2022-10-20T19:18:00.794Z,73.91
2022-10-20T19:20:33.810Z,73.95
2022-10-20T19:23:05.647Z,74.19
2022-10-20T19:25:37.665Z,74.23
2022-10-20T19:28:12.537Z,74.35
2022-10-20T19:30:44.396Z,75.01
2022-10-20T19:33:16.417Z,75.40
2022-10-20T19:35:49.896Z,76.07
2022-10-20T19:38:21.821Z,76.49
2022-10-20T19:40:53.927Z,77.17
2022-10-20T19:43:26.750Z,78.07
2022-10-20T19:45:59.154Z,78.24
2022-10-20T19:48:31.140Z,79.24
2022-10-20T19:51:03.811Z,80.04
2022-10-20T19:53:36.641Z,81.45
2022-10-20T19:56:09.543Z,81.87
2022-10-20T19:58:45.607Z,82.39
2022-10-20T20:01:18.691Z,82.69
2022-10-20T20:03:50.573Z,83.36
2022-10-20T20:06:23.019Z,83.92
2022-10-20T20:08:59.336Z,84.52
2022-10-20T20:11:56.406Z,86.95
2022-10-20T20:14:28.418Z,84.70
2022-10-20T20:17:00.468Z,85.49
2022-10-20T20:19:32.639Z,84.69
2022-10-20T20:22:04.577Z,85.09
2022-10-20T20:24:38.778Z,85.27
2022-10-20T20:27:10.895Z,85.78
2022-10-20T20:29:42.926Z,86.41
2022-10-20T20:32:15.370Z,86.26
2022-10-20T20:34:47.163Z,86.69
2022-10-20T20:37:21.121Z,87.13
2022-10-20T20:39:53.119Z,87.24
2022-10-20T20:42:25.108Z,87.48
2022-10-20T20:44:57.296Z,87.87
2022-10-20T20:47:32.396Z,88.88
2022-10-20T20:50:05.064Z,89.09
2022-10-20T20:52:36.956Z,89.51
2022-10-20T20:55:08.896Z,90.08
2022-10-20T20:57:40.887Z,90.69
2022-10-20T21:00:13.691Z,91.25
2022-10-20T21:02:46.174Z,91.37
2022-10-20T21:05:18.155Z,91.87
2022-10-20T21:07:50.202Z,92.18
2022-10-20T21:10:22.126Z,92.69
2022-10-20T21:12:55.335Z,93.18
2022-10-20T21:15:27.580Z,93.43
2022-10-20T21:17:59.825Z,93.62
2022-10-20T21:20:31.767Z,94.03
2022-10-20T21:23:03.863Z,94.13
2022-10-20T21:25:36.049Z,94.38
2022-10-20T21:28:07.959Z,94.65
2022-10-20T21:30:40.236Z,94.66
2022-10-20T21:33:12.464Z,94.76
2022-10-20T21:35:44.561Z,94.74
2022-10-20T21:38:16.637Z,94.76
2022-10-20T21:40:48.624Z,94.56
2022-10-20T21:43:20.632Z,95.02
2022-10-20T21:45:52.717Z,94.97
2022-10-20T21:48:24.772Z,95.04
2022-10-20T21:50:57.103Z,95.22
2022-10-20T21:53:29.017Z,95.14
2022-10-20T21:56:00.873Z,94.92
2022-10-20T21:58:33.479Z,95.16
2022-10-20T22:01:16.487Z,94.99
2022-10-20T22:03:50.867Z,95.38
2022-10-20T22:06:25.280Z,95.15
2022-10-20T22:08:58.376Z,95.53
2022-10-20T22:11:33.422Z,95.72
2022-10-20T22:14:06.451Z,95.66
2022-10-20T22:16:40.680Z,95.75
2022-10-20T22:19:16.225Z,95.60
2022-10-20T22:21:49.568Z,95.51
2022-10-20T22:24:22.074Z,95.63
2022-10-20T22:26:54.457Z,95.35
2022-10-20T22:29:26.580Z,95.01
2022-10-20T22:31:58.996Z,95.21
2022-10-20T22:34:30.932Z,95.22
2022-10-20T22:37:02.731Z,94.99
2022-10-20T22:39:34.610Z,94.94
2022-10-20T22:42:06.458Z,94.66
2022-10-20T22:44:38.402Z,94.77
2022-10-20T22:47:10.234Z,94.62
2022-10-20T22:49:42.242Z,94.69
2022-10-20T22:52:14.095Z,94.59
2022-10-20T22:54:46.150Z,94.43
2022-10-20T22:57:18.073Z,94.47
2022-10-20T22:59:51.977Z,94.23
2022-10-20T23:02:23.767Z,94.41
2022-10-20T23:04:55.573Z,94.20
2022-10-20T23:07:27.594Z,94.30
2022-10-20T23:09:59.660Z,94.19
2022-10-20T23:12:32.234Z,94.05
2022-10-20T23:15:05.567Z,94.00
2022-10-20T23:17:37.906Z,94.05
2022-10-20T23:20:10.706Z,93.86
2022-10-20T23:22:42.697Z,93.68
2022-10-20T23:25:14.813Z,93.70
2022-10-20T23:27:46.728Z,93.73
2022-10-20T23:30:18.616Z,93.85
2022-10-20T23:32:50.502Z,93.78
2022-10-20T23:35:22.549Z,93.84
2022-10-20T23:37:54.386Z,93.84
2022-10-20T23:40:26.323Z,93.79
2022-10-20T23:42:58.173Z,93.74
2022-10-20T23:45:32.863Z,93.49
2022-10-20T23:48:07.945Z,93.52
2022-10-20T23:50:40.177Z,93.41
2022-10-20T23:53:12.297Z,93.55
2022-10-20T23:55:44.191Z,93.69
2022-10-20T23:58:20.935Z,93.45
